Time;durP1;ratioP1;P1;durP2;ratioP2;P2;SDS_P1;SDS_P2;PMS_P1;PMS_P2;Temp;Humidity;BMP_temperature;BMP_pressure;BME280_temperature;BME280_humidity;BME280_pressure;Samples;Min_cycle;Max_cycle;Signal;HPM_P1;HPM_P2
2023/05/02 00:01:30;;;;;;;;;;;10.50;99.90;;;;;;5073642;28;19924;-68
2023/05/02 00:03:55;;;;;;;;;;;10.50;99.90;;;;;;5072831;28;19931;-68
2023/05/02 00:06:21;;;;;;;;;;;10.50;99.90;;;;;;5072901;28;20007;-68
2023/05/02 00:08:48;;;;;;;;;;;10.50;99.90;;;;;;5089865;28;19924;-68
2023/05/02 00:11:13;;;;;;;;;;;10.50;99.90;;;;;;5072038;28;20441;-68
2023/05/02 00:13:39;;;;;;;;;;;10.50;99.90;;;;;;5073088;28;20030;-68
2023/05/02 00:16:05;;;;;;;;;;;10.60;99.90;;;;;;5039601;28;19932;-68
2023/05/02 00:18:30;;;;;;;;;;;10.60;99.90;;;;;;5055952;28;20007;-68
2023/05/02 00:20:56;;;;;;;;;;;10.60;99.90;;;;;;5072894;28;19924;-67
2023/05/02 00:23:21;;;;;;;;;;;10.60;99.90;;;;;;5055840;28;19931;-67
2023/05/02 00:25:47;;;;;;;;;;;10.60;99.90;;;;;;5073615;28;19970;-68
2023/05/02 00:28:12;;;;;;;;;;;10.60;99.90;;;;;;5072705;28;19972;-68
2023/05/02 00:30:45;;;;;;;;;;;10.60;99.90;;;;;;5039113;28;19928;-68
2023/05/02 00:33:12;;;;;;;;;;;10.60;99.90;;;;;;5039032;28;19930;-68
2023/05/02 00:35:37;;;;;;;;;;;10.60;99.90;;;;;;5073219;28;19967;-68
2023/05/02 00:38:03;;;;;;;;;;;10.60;99.90;;;;;;5071750;28;20392;-67
2023/05/02 00:51:07;;;;;;;;;;;10.60;99.90;;;;;;4884364;27;20013;-70
2023/05/02 00:53:34;;;;;;;;;;;10.60;99.90;;;;;;4896882;29;19923;-71
2023/05/02 00:56:01;;;;;;;;;;;10.60;99.90;;;;;;4898088;29;20355;-70
2023/05/02 00:58:26;;;;;;;;;;;10.60;99.90;;;;;;4898551;29;19927;-72
2023/05/02 01:01:07;;;;;;;;;;;10.60;99.90;;;;;;4898219;29;19979;-69
2023/05/02 01:03:48;;;;;;;;;;;10.50;99.90;;;;;;4898480;29;19923;-70
2023/05/02 01:06:32;;;;;;;;;;;10.50;99.90;;;;;;4898191;29;19929;-71
2023/05/02 01:09:00;;;;;;;;;;;10.50;99.90;;;;;;4898151;29;20247;-70
2023/05/02 01:11:30;;;;;;;;;;;10.40;99.90;;;;;;4913102;29;19924;-72
2023/05/02 01:13:58;;;;;;;;;;;10.40;99.90;;;;;;4898089;29;20018;-69
2023/05/02 01:16:24;;;;;;;;;;;10.30;99.90;;;;;;4897187;29;20342;-70
2023/05/02 01:18:50;;;;;;;;;;;10.30;99.90;;;;;;4898259;29;19971;-70
2023/05/02 01:21:15;;;;;;;;;;;10.30;99.90;;;;;;4897862;29;19923;-69
2023/05/02 01:23:50;;;;;;;;;;;10.30;99.90;;;;;;4895991;29;19999;-70
2023/05/02 01:26:20;;;;;;;;;;;10.20;99.90;;;;;;4897727;29;19924;-70
2023/05/02 01:28:59;;;;;;;;;;;10.10;99.90;;;;;;4898106;29;20278;-71
2023/05/02 01:31:26;;;;;;;;;;;10.10;99.90;;;;;;4912267;29;20373;-70
2023/05/02 01:33:53;;;;;;;;;;;10.00;99.90;;;;;;4898934;29;19923;-70
2023/05/02 01:36:20;;;;;;;;;;;9.80;99.90;;;;;;4896876;29;19924;-72
2023/05/02 01:38:46;;;;;;;;;;;9.70;99.90;;;;;;4897875;29;20338;-73
2023/05/02 01:41:12;;;;;;;;;;;9.60;99.90;;;;;;4897391;29;19975;-73
2023/05/02 01:43:38;;;;;;;;;;;9.50;99.90;;;;;;4881439;29;19985;-74
2023/05/02 01:46:04;;;;;;;;;;;9.50;99.90;;;;;;4896420;29;19984;-70
2023/05/02 01:48:31;;;;;;;;;;;9.50;99.90;;;;;;4897177;29;19935;-73
2023/05/02 01:50:57;;;;;;;;;;;9.40;99.90;;;;;;4911655;29;20403;-72
2023/05/02 01:53:27;;;;;;;;;;;9.40;99.90;;;;;;4897428;29;19924;-72
2023/05/02 01:55:53;;;;;;;;;;;9.40;99.90;;;;;;4897652;29;19923;-70
2023/05/02 01:58:19;;;;;;;;;;;9.40;99.90;;;;;;4896991;29;19923;-71
2023/05/02 02:00:45;;;;;;;;;;;9.40;99.90;;;;;;4897600;29;19923;-70
2023/05/02 02:03:11;;;;;;;;;;;9.40;99.90;;;;;;4897295;29;20393;-72
2023/05/02 02:05:38;;;;;;;;;;;9.40;99.90;;;;;;4897534;29;19971;-73
2023/05/02 02:08:04;;;;;;;;;;;9.30;99.90;;;;;;4896255;29;19930;-70
2023/05/02 02:10:34;;;;;;;;;;;9.30;99.90;;;;;;4897264;29;19932;-71
2023/05/02 02:13:05;;;;;;;;;;;9.20;99.90;;;;;;4896263;29;20380;-70
2023/05/02 02:15:33;;;;;;;;;;;9.30;99.90;;;;;;4897564;29;19988;-70
2023/05/02 02:18:00;;;;;;;;;;;9.30;99.90;;;;;;4897389;29;19930;-71
2023/05/02 02:20:27;;;;;;;;;;;9.30;99.90;;;;;;4897252;29;20273;-70
2023/05/02 02:22:53;;;;;;;;;;;9.30;99.90;;;;;;4897652;29;19930;-70
2023/05/02 02:25:19;;;;;;;;;;;9.20;99.90;;;;;;4897275;29;19946;-70
2023/05/02 02:27:46;;;;;;;;;;;9.20;99.90;;;;;;4897406;29;20345;-70
2023/05/02 02:30:11;;;;;;;;;;;9.10;99.90;;;;;;4880672;29;19970;-69
2023/05/02 02:32:37;;;;;;;;;;;9.10;99.90;;;;;;4896079;29;19975;-71
2023/05/02 02:35:03;;;;;;;;;;;9.00;99.90;;;;;;4899122;29;19924;-70
2023/05/02 02:37:34;;;;;;;;;;;8.90;99.90;;;;;;4899238;29;19923;-70
2023/05/02 02:40:06;;;;;;;;;;;8.80;99.90;;;;;;4900943;29;20383;-70
2023/05/02 02:42:38;;;;;;;;;;;8.80;99.90;;;;;;4900708;29;19927;-69
2023/05/02 02:45:17;;;;;;;;;;;8.80;99.90;;;;;;4900987;29;19923;-70
2023/05/02 02:47:46;;;;;;;;;;;8.70;99.90;;;;;;4900917;29;19924;-70
2023/05/02 02:50:11;;;;;;;;;;;8.70;99.90;;;;;;4900368;29;19998;-69
2023/05/02 02:52:43;;;;;;;;;;;8.70;99.90;;;;;;4915541;29;19928;-69
2023/05/02 02:55:16;;;;;;;;;;;8.60;99.90;;;;;;4915062;29;20021;-69
2023/05/02 02:57:47;;;;;;;;;;;8.60;99.90;;;;;;4900767;29;20285;-70
2023/05/02 03:00:21;;;;;;;;;;;8.50;99.90;;;;;;4900453;29;19924;-69
2023/05/02 03:02:47;;;;;;;;;;;8.50;99.90;;;;;;4900657;29;19962;-70
2023/05/02 03:05:12;;;;;;;;;;;8.50;99.90;;;;;;4883734;29;19967;-69
2023/05/02 03:07:38;;;;;;;;;;;8.50;99.90;;;;;;4899304;29;19923;-69
2023/05/02 03:10:04;;;;;;;;;;;8.40;99.90;;;;;;4899556;29;19923;-68
2023/05/02 03:12:30;;;;;;;;;;;8.40;99.90;;;;;;4900118;29;19990;-70
2023/05/02 03:15:02;;;;;;;;;;;8.30;99.90;;;;;;4900176;29;20009;-70
2023/05/02 03:17:27;;;;;;;;;;;8.30;99.90;;;;;;4900350;29;19923;-69
2023/05/02 03:19:54;;;;;;;;;;;8.30;99.90;;;;;;4899045;29;19927;-70
2023/05/02 03:22:19;;;;;;;;;;;8.30;99.90;;;;;;4899899;29;19928;-70
2023/05/02 03:24:45;;;;;;;;;;;8.30;99.90;;;;;;4900155;29;19923;-70
2023/05/02 03:27:11;;;;;;;;;;;8.30;99.90;;;;;;4900088;29;20014;-71
2023/05/02 03:29:36;;;;;;;;;;;8.30;99.90;;;;;;4883379;29;19924;-70
2023/05/02 03:32:02;;;;;;;;;;;8.30;99.90;;;;;;4900261;29;19975;-70
2023/05/02 03:34:27;;;;;;;;;;;8.30;99.90;;;;;;4914274;29;20356;-70
2023/05/02 03:36:53;;;;;;;;;;;8.30;99.90;;;;;;4914741;29;19927;-69
2023/05/02 03:39:19;;;;;;;;;;;8.20;99.90;;;;;;4899487;29;19931;-71
2023/05/02 03:41:45;;;;;;;;;;;8.20;99.90;;;;;;4867869;29;20010;-70
2023/05/02 03:44:10;;;;;;;;;;;8.20;99.90;;;;;;4900004;29;20022;-70
2023/05/02 03:46:36;;;;;;;;;;;8.20;99.90;;;;;;4898760;29;20429;-69
2023/05/02 03:49:02;;;;;;;;;;;8.20;99.90;;;;;;4882987;29;20285;-70
2023/05/02 03:51:27;;;;;;;;;;;8.10;99.90;;;;;;4899651;29;19923;-69
2023/05/02 03:53:53;;;;;;;;;;;8.10;99.90;;;;;;4899378;29;19927;-70
2023/05/02 03:56:19;;;;;;;;;;;8.10;99.90;;;;;;4898241;29;19924;-70
2023/05/02 03:58:45;;;;;;;;;;;8.00;99.90;;;;;;4899659;29;20274;-69
2023/05/02 04:01:14;;;;;;;;;;;8.00;99.90;;;;;;4914165;29;19990;-69
2023/05/02 04:03:40;;;;;;;;;;;8.10;99.90;;;;;;4914077;29;19982;-72
2023/05/02 04:06:06;;;;;;;;;;;8.10;99.90;;;;;;4899441;29;20354;-70
2023/05/02 04:08:31;;;;;;;;;;;8.00;99.90;;;;;;4897977;29;19924;-71
2023/05/02 04:10:57;;;;;;;;;;;8.00;99.90;;;;;;4899170;29;19986;-71
2023/05/02 04:13:23;;;;;;;;;;;8.00;99.90;;;;;;4898729;29;19928;-69
2023/05/02 04:15:48;;;;;;;;;;;8.00;99.90;;;;;;4898117;29;19928;-69
2023/05/02 04:18:14;;;;;;;;;;;8.00;99.90;;;;;;4866778;29;20370;-71
2023/05/02 04:20:41;;;;;;;;;;;7.90;99.90;;;;;;4898650;29;20331;-71
2023/05/02 04:23:07;;;;;;;;;;;8.00;99.90;;;;;;4882064;29;20454;-68
2023/05/02 04:25:33;;;;;;;;;;;7.90;99.90;;;;;;4866637;29;20047;-69
2023/05/02 04:27:58;;;;;;;;;;;8.00;99.90;;;;;;4898058;29;19927;-70
2023/05/02 04:30:24;;;;;;;;;;;7.90;99.90;;;;;;4898485;29;20382;-69
2023/05/02 04:32:49;;;;;;;;;;;7.80;99.90;;;;;;4913466;29;19939;-70
2023/05/02 04:35:16;;;;;;;;;;;7.90;99.90;;;;;;4897565;29;19927;-71
2023/05/02 04:37:41;;;;;;;;;;;7.90;99.90;;;;;;4898347;29;19927;-71
2023/05/02 04:40:07;;;;;;;;;;;7.80;99.90;;;;;;4897663;29;20255;-70
2023/05/02 04:42:33;;;;;;;;;;;7.80;99.90;;;;;;4897234;29;19928;-70
2023/05/02 04:44:59;;;;;;;;;;;7.80;99.90;;;;;;4898669;29;20393;-70
2023/05/02 04:47:24;;;;;;;;;;;7.90;99.90;;;;;;4898232;29;19934;-68
2023/05/02 04:49:50;;;;;;;;;;;7.90;99.90;;;;;;4897110;29;20031;-70
2023/05/02 04:52:15;;;;;;;;;;;7.80;99.90;;;;;;4898926;29;19928;-70
2023/05/02 04:54:41;;;;;;;;;;;7.90;99.90;;;;;;4898093;29;19970;-71
2023/05/02 04:57:08;;;;;;;;;;;7.80;99.90;;;;;;4881693;29;19982;-70
2023/05/02 04:59:34;;;;;;;;;;;7.90;99.90;;;;;;4912566;29;19951;-71
2023/05/02 05:02:01;;;;;;;;;;;7.90;99.90;;;;;;4898331;29;20029;-70
2023/05/02 05:04:27;;;;;;;;;;;7.90;99.90;;;;;;4912753;29;20038;-70
2023/05/02 05:06:53;;;;;;;;;;;7.90;99.90;;;;;;4881752;29;19931;-71
2023/05/02 05:09:19;;;;;;;;;;;7.90;99.90;;;;;;4898315;29;20293;-71
2023/05/02 05:11:45;;;;;;;;;;;7.90;99.90;;;;;;4897882;29;19934;-70
2023/05/02 05:14:10;;;;;;;;;;;8.00;99.90;;;;;;4896767;29;19982;-70
2023/05/02 05:16:36;;;;;;;;;;;8.00;99.90;;;;;;4896754;29;20354;-71
2023/05/02 05:19:03;;;;;;;;;;;8.00;99.90;;;;;;4881588;29;20010;-71
2023/05/02 05:21:28;;;;;;;;;;;7.90;99.90;;;;;;4897753;29;19931;-69
2023/05/02 05:23:54;;;;;;;;;;;7.90;99.90;;;;;;4897844;29;19934;-70
2023/05/02 05:26:20;;;;;;;;;;;7.90;99.90;;;;;;4881105;29;19939;-71
2023/05/02 05:28:45;;;;;;;;;;;7.90;99.90;;;;;;4897604;29;19970;-70
2023/05/02 05:31:12;;;;;;;;;;;7.90;99.90;;;;;;4897923;29;20026;-71
2023/05/02 05:33:38;;;;;;;;;;;7.90;99.90;;;;;;4897572;29;19935;-70
2023/05/02 05:36:04;;;;;;;;;;;7.90;99.90;;;;;;4898003;29;19934;-71
2023/05/02 05:38:30;;;;;;;;;;;7.90;99.90;;;;;;4912043;29;19935;-69
2023/05/02 05:40:55;;;;;;;;;;;7.90;99.90;;;;;;4897561;29;19927;-70
2023/05/02 05:43:21;;;;;;;;;;;7.90;99.90;;;;;;4881387;29;20080;-71
2023/05/02 05:45:46;;;;;;;;;;;7.80;99.90;;;;;;4912430;29;19927;-73
2023/05/02 05:48:12;;;;;;;;;;;7.80;99.90;;;;;;4897809;29;19935;-72
2023/05/02 05:50:37;;;;;;;;;;;7.90;99.90;;;;;;4897358;29;19928;-71
2023/05/02 05:53:03;;;;;;;;;;;7.90;99.90;;;;;;4897481;29;19974;-71
2023/05/02 05:55:29;;;;;;;;;;;7.90;99.90;;;;;;4912087;29;20278;-71
2023/05/02 05:57:54;;;;;;;;;;;7.90;99.90;;;;;;4896113;29;19927;-71
2023/05/02 06:00:20;;;;;;;;;;;8.00;99.90;;;;;;4896526;29;19994;-71
2023/05/02 06:02:45;;;;;;;;;;;7.90;99.90;;;;;;4896116;29;20371;-70
2023/05/02 06:05:11;;;;;;;;;;;8.00;99.90;;;;;;4896721;29;20293;-70
2023/05/02 06:07:37;;;;;;;;;;;8.00;99.90;;;;;;4897210;29;20354;-70
2023/05/02 06:10:02;;;;;;;;;;;8.00;99.90;;;;;;4915045;29;19928;-70
2023/05/02 06:12:28;;;;;;;;;;;8.00;99.90;;;;;;4901340;29;20258;-70
2023/05/02 06:14:53;;;;;;;;;;;7.90;99.90;;;;;;4901126;29;20122;-72
2023/05/02 06:17:19;;;;;;;;;;;7.90;99.90;;;;;;4901086;29;19931;-72
2023/05/02 06:19:45;;;;;;;;;;;8.00;99.90;;;;;;4899390;29;19927;-71
2023/05/02 06:22:11;;;;;;;;;;;8.00;99.90;;;;;;4915499;29;19928;-70
2023/05/02 06:24:37;;;;;;;;;;;8.00;99.90;;;;;;4884093;29;19938;-70
2023/05/02 06:27:02;;;;;;;;;;;8.00;99.90;;;;;;4900727;29;19928;-71
2023/05/02 06:29:28;;;;;;;;;;;8.00;99.90;;;;;;4901025;29;20026;-72
2023/05/02 06:31:54;;;;;;;;;;;8.10;99.90;;;;;;4915490;29;19934;-71
2023/05/02 06:34:19;;;;;;;;;;;8.10;99.90;;;;;;4900968;29;19938;-72
2023/05/02 06:36:45;;;;;;;;;;;8.10;99.90;;;;;;4900597;29;19928;-71
2023/05/02 06:39:11;;;;;;;;;;;8.20;99.90;;;;;;4900882;29;19974;-71
2023/05/02 06:41:36;;;;;;;;;;;8.20;99.90;;;;;;4900678;29;19935;-70
2023/05/02 06:44:02;;;;;;;;;;;8.20;99.90;;;;;;4899155;29;19932;-71
2023/05/02 06:46:29;;;;;;;;;;;8.20;99.90;;;;;;4900684;29;19928;-70
2023/05/02 06:48:55;;;;;;;;;;;8.20;99.90;;;;;;4898916;29;20040;-71
2023/05/02 06:51:21;;;;;;;;;;;8.30;99.90;;;;;;4899051;29;19955;-71
2023/05/02 06:53:46;;;;;;;;;;;8.30;99.90;;;;;;4898851;29;19928;-71
2023/05/02 06:56:12;;;;;;;;;;;8.30;99.90;;;;;;4915201;29;19979;-70
2023/05/02 06:58:38;;;;;;;;;;;8.30;99.90;;;;;;4900585;29;19934;-71
2023/05/02 07:01:03;;;;;;;;;;;8.40;99.90;;;;;;4899109;29;19928;-70
2023/05/02 07:03:29;;;;;;;;;;;8.40;99.90;;;;;;4899660;29;20458;-70
2023/05/02 07:05:55;;;;;;;;;;;8.40;99.90;;;;;;4898945;29;19938;-71
2023/05/02 07:08:22;;;;;;;;;;;8.40;99.90;;;;;;4915180;29;20286;-73
2023/05/02 07:10:49;;;;;;;;;;;8.40;99.90;;;;;;4899983;29;19928;-71
2023/05/02 07:13:14;;;;;;;;;;;8.50;99.90;;;;;;4900047;29;19927;-71
2023/05/02 07:15:40;;;;;;;;;;;8.50;99.90;;;;;;4900048;29;19927;-71
2023/05/02 07:18:06;;;;;;;;;;;8.50;99.90;;;;;;4899880;29;19927;-71
2023/05/02 07:20:31;;;;;;;;;;;8.60;99.90;;;;;;4898648;29;20019;-70
2023/05/02 07:22:57;;;;;;;;;;;8.70;99.90;;;;;;4899691;29;19931;-70
2023/05/02 07:25:22;;;;;;;;;;;8.70;99.90;;;;;;4915041;29;20369;-71
2023/05/02 07:27:48;;;;;;;;;;;8.80;99.90;;;;;;4898815;29;19927;-72
2023/05/02 07:30:14;;;;;;;;;;;8.80;99.90;;;;;;4868178;29;19928;-71
2023/05/02 07:32:39;;;;;;;;;;;8.80;99.90;;;;;;4900103;29;19932;-72
2023/05/02 07:35:05;;;;;;;;;;;8.90;99.90;;;;;;4899582;29;20301;-71
2023/05/02 07:37:31;;;;;;;;;;;8.90;99.90;;;;;;4898691;29;19928;-70
2023/05/02 07:39:57;;;;;;;;;;;9.00;99.90;;;;;;4899556;29;19927;-71
2023/05/02 07:42:27;;;;;;;;;;;9.10;99.90;;;;;;4898735;29;20570;-71
2023/05/02 07:44:53;;;;;;;;;;;9.20;99.90;;;;;;4899353;29;19928;-71
2023/05/02 07:47:18;;;;;;;;;;;9.30;99.90;;;;;;4899647;29;20037;-70
2023/05/02 07:49:44;;;;;;;;;;;9.40;99.90;;;;;;4899210;29;19927;-70
2023/05/02 07:52:10;;;;;;;;;;;9.60;99.90;;;;;;4898000;29;19932;-71
2023/05/02 07:54:35;;;;;;;;;;;9.80;99.90;;;;;;4899371;29;20028;-70
2023/05/02 07:57:02;;;;;;;;;;;9.80;99.90;;;;;;4899120;29;19976;-70
2023/05/02 07:59:28;;;;;;;;;;;9.90;99.90;;;;;;4899536;29;19932;-70
2023/05/02 08:01:54;;;;;;;;;;;9.90;99.90;;;;;;4898208;29;19927;-71
2023/05/02 08:04:20;;;;;;;;;;;10.00;99.90;;;;;;4899016;29;19931;-73
2023/05/02 08:06:46;;;;;;;;;;;10.40;99.90;;;;;;4899407;29;19983;-70
2023/05/02 08:09:11;;;;;;;;;;;10.80;99.90;;;;;;4897491;29;19946;-70
2023/05/02 08:11:37;;;;;;;;;;;11.10;99.90;;;;;;4913681;29;19932;-70
2023/05/02 08:14:02;;;;;;;;;;;11.20;99.90;;;;;;4898929;29;20401;-70
2023/05/02 08:16:28;;;;;;;;;;;11.30;99.80;;;;;;4913806;29;19927;-71
2023/05/02 08:18:53;;;;;;;;;;;11.60;99.60;;;;;;4897347;29;20022;-70
2023/05/02 08:21:19;;;;;;;;;;;11.80;99.40;;;;;;4898228;29;19931;-71
2023/05/02 08:23:45;;;;;;;;;;;11.80;98.10;;;;;;4898986;29;19934;-71
2023/05/02 08:26:11;;;;;;;;;;;11.90;98.40;;;;;;4898675;29;20038;-70
2023/05/02 08:28:36;;;;;;;;;;;11.80;98.20;;;;;;4898792;29;20454;-71
2023/05/02 08:31:02;;;;;;;;;;;12.00;98.10;;;;;;4897973;29;19998;-69
2023/05/02 08:33:27;;;;;;;;;;;11.90;98.40;;;;;;4913083;29;19970;-72
2023/05/02 08:35:53;;;;;;;;;;;11.70;97.60;;;;;;4913313;29;19943;-69
2023/05/02 08:38:18;;;;;;;;;;;11.60;97.90;;;;;;4898234;29;20076;-71
2023/05/02 08:40:44;;;;;;;;;;;11.40;98.20;;;;;;4898271;29;19955;-70
2023/05/02 08:43:10;;;;;;;;;;;11.30;98.20;;;;;;4897160;29;20018;-70
2023/05/02 08:45:40;;;;;;;;;;;11.40;97.90;;;;;;4881917;29;20293;-70
2023/05/02 08:48:09;;;;;;;;;;;12.00;97.90;;;;;;4912729;29;19935;-71
2023/05/02 08:50:37;;;;;;;;;;;13.10;97.80;;;;;;4896771;29;19927;-72
2023/05/02 08:53:04;;;;;;;;;;;13.90;96.10;;;;;;4896869;29;19986;-71
2023/05/02 08:55:30;;;;;;;;;;;14.30;95.40;;;;;;4898114;29;19931;-71
2023/05/02 08:57:56;;;;;;;;;;;14.20;94.60;;;;;;4898084;29;19927;-70
2023/05/02 09:00:22;;;;;;;;;;;13.90;94.70;;;;;;4898029;29;19983;-71
2023/05/02 09:03:03;;;;;;;;;;;13.10;95.10;;;;;;4912597;29;19931;-72
2023/05/02 09:05:32;;;;;;;;;;;12.90;96.10;;;;;;4898124;29;20316;-71
2023/05/02 09:07:57;;;;;;;;;;;12.90;95.30;;;;;;4896747;29;20300;-69
2023/05/02 09:10:25;;;;;;;;;;;12.90;96.00;;;;;;4881094;29;20065;-70
2023/05/02 09:12:50;;;;;;;;;;;13.20;96.60;;;;;;4912412;29;19959;-71
2023/05/02 09:15:16;;;;;;;;;;;13.10;97.10;;;;;;4896343;29;19970;-71
2023/05/02 09:17:42;;;;;;;;;;;12.90;97.30;;;;;;4912358;29;19975;-71
2023/05/02 09:20:12;;;;;;;;;;;12.50;97.90;;;;;;4896279;29;19985;-71
2023/05/02 09:22:38;;;;;;;;;;;12.30;99.10;;;;;;4881037;29;20212;-70
2023/05/02 09:25:07;;;;;;;;;;;12.10;98.90;;;;;;4897462;29;19960;-70
2023/05/02 09:27:51;;;;;;;;;;;11.80;99.40;;;;;;4897886;29;19928;-73
2023/05/02 09:30:17;;;;;;;;;;;11.60;99.70;;;;;;4897421;29;19928;-70
2023/05/02 09:32:43;;;;;;;;;;;11.40;99.90;;;;;;4897491;29;19928;-73
2023/05/02 09:35:09;;;;;;;;;;;11.40;99.90;;;;;;4896287;29;19934;-73
2023/05/02 09:37:34;;;;;;;;;;;11.50;99.10;;;;;;4880905;29;19927;-74
2023/05/02 09:40:06;;;;;;;;;;;11.50;99.30;;;;;;4896338;29;19943;-72
2023/05/02 09:42:32;;;;;;;;;;;11.70;99.70;;;;;;4897495;29;19934;-71
2023/05/02 09:44:57;;;;;;;;;;;12.00;99.40;;;;;;4880029;29;20382;-71
2023/05/02 09:47:25;;;;;;;;;;;12.30;99.40;;;;;;4911992;29;20005;-72
2023/05/02 09:49:51;;;;;;;;;;;12.40;98.90;;;;;;4897478;29;19927;-71
2023/05/02 09:52:18;;;;;;;;;;;12.50;99.10;;;;;;4896383;29;19991;-70
2023/05/02 09:54:45;;;;;;;;;;;12.40;98.50;;;;;;4881611;29;19975;-71
2023/05/02 09:57:11;;;;;;;;;;;12.10;98.30;;;;;;4895853;29;19928;-73
2023/05/02 09:59:37;;;;;;;;;;;11.70;98.60;;;;;;4897604;29;20489;-72
2023/05/02 10:02:04;;;;;;;;;;;11.50;99.00;;;;;;4896483;29;19934;-71
2023/05/02 10:04:30;;;;;;;;;;;11.50;99.20;;;;;;4896886;29;20027;-71
2023/05/02 10:06:57;;;;;;;;;;;11.40;98.70;;;;;;4896604;29;19970;-71
2023/05/02 10:09:24;;;;;;;;;;;11.40;99.10;;;;;;4897026;29;20350;-70
2023/05/02 10:11:51;;;;;;;;;;;11.60;99.70;;;;;;4896326;29;19932;-72
2023/05/02 10:14:18;;;;;;;;;;;11.80;98.90;;;;;;4896734;29;19983;-71
2023/05/02 10:16:50;;;;;;;;;;;12.00;98.70;;;;;;4911925;29;20031;-70
2023/05/02 10:19:21;;;;;;;;;;;12.10;98.70;;;;;;4896833;29;19932;-71
2023/05/02 10:21:46;;;;;;;;;;;12.20;98.00;;;;;;4897181;29;20291;-71
2023/05/02 10:24:12;;;;;;;;;;;12.10;98.20;;;;;;4911336;29;19927;-70
2023/05/02 10:26:38;;;;;;;;;;;12.00;98.60;;;;;;4896608;29;19935;-70
2023/05/02 10:29:04;;;;;;;;;;;12.10;98.90;;;;;;4896992;29;20038;-71
2023/05/02 10:31:33;;;;;;;;;;;12.20;99.00;;;;;;4895614;29;19934;-71
2023/05/02 10:34:00;;;;;;;;;;;12.00;98.80;;;;;;4896910;29;20271;-70
2023/05/02 10:36:26;;;;;;;;;;;12.30;99.30;;;;;;4896451;29;19927;-71
2023/05/02 10:38:51;;;;;;;;;;;12.60;99.10;;;;;;4896875;29;19934;-69
2023/05/02 10:41:27;;;;;;;;;;;12.80;97.70;;;;;;4896580;29;20286;-70
2023/05/02 10:43:53;;;;;;;;;;;12.70;99.00;;;;;;4897045;29;20014;-70
2023/05/02 10:46:28;;;;;;;;;;;12.50;99.90;;;;;;4896573;29;20022;-72
2023/05/02 10:49:03;;;;;;;;;;;12.30;99.90;;;;;;4897032;29;20289;-70
2023/05/02 10:51:30;;;;;;;;;;;12.10;99.90;;;;;;4896756;29;19928;-70
2023/05/02 10:54:15;;;;;;;;;;;11.90;99.90;;;;;;4895885;29;19928;-71
2023/05/02 10:57:03;;;;;;;;;;;11.70;99.90;;;;;;4898879;29;19931;-70
2023/05/02 10:59:29;;;;;;;;;;;11.50;99.90;;;;;;4914465;29;19928;-71
2023/05/02 11:01:55;;;;;;;;;;;11.40;99.90;;;;;;4899180;29;20374;-70
2023/05/02 11:04:21;;;;;;;;;;;11.40;99.90;;;;;;4914172;29;20063;-72
2023/05/02 11:06:55;;;;;;;;;;;11.60;99.90;;;;;;4900195;29;19928;-71
2023/05/02 11:09:21;;;;;;;;;;;11.80;99.90;;;;;;4914675;29;19935;-70
2023/05/02 11:11:48;;;;;;;;;;;11.90;99.90;;;;;;4900916;29;19928;-71
2023/05/02 11:14:32;;;;;;;;;;;12.10;99.90;;;;;;4899231;29;20059;-70
2023/05/02 11:17:04;;;;;;;;;;;12.20;99.80;;;;;;4899956;29;19928;-72
2023/05/02 11:19:50;;;;;;;;;;;12.30;99.90;;;;;;4914131;29;19931;-71
2023/05/02 11:22:25;;;;;;;;;;;12.20;99.90;;;;;;4899067;29;19928;-69
2023/05/02 11:24:51;;;;;;;;;;;12.10;99.90;;;;;;4899907;29;20422;-71
2023/05/02 11:27:32;;;;;;;;;;;12.10;99.90;;;;;;4898629;29;19974;-70
2023/05/02 11:29:59;;;;;;;;;;;12.00;99.90;;;;;;4898727;29;19928;-71
2023/05/02 11:32:44;;;;;;;;;;;12.00;99.90;;;;;;4899307;29;20046;-70
2023/05/02 11:35:31;;;;;;;;;;;11.90;99.70;;;;;;4899540;29;19938;-70
2023/05/02 11:38:01;;;;;;;;;;;11.80;99.80;;;;;;4899563;29;20243;-70
2023/05/02 11:40:27;;;;;;;;;;;11.90;99.90;;;;;;4898197;29;19927;-70
2023/05/02 11:42:53;;;;;;;;;;;12.10;99.90;;;;;;4898396;29;19934;-70
2023/05/02 11:45:20;;;;;;;;;;;12.00;99.30;;;;;;4899442;29;19951;-70
2023/05/02 11:47:47;;;;;;;;;;;12.00;99.50;;;;;;4882627;29;20010;-71
2023/05/02 11:50:13;;;;;;;;;;;12.00;99.50;;;;;;4897776;29;19928;-71
2023/05/02 11:52:40;;;;;;;;;;;12.00;99.30;;;;;;4898961;29;19927;-70
2023/05/02 11:55:08;;;;;;;;;;;12.00;97.60;;;;;;4899346;29;20242;-70
2023/05/02 11:57:33;;;;;;;;;;;12.00;97.90;;;;;;4898775;29;19993;-70
2023/05/02 12:00:00;;;;;;;;;;;12.20;98.10;;;;;;4897921;29;19970;-69
2023/05/02 12:02:35;;;;;;;;;;;12.30;98.10;;;;;;4897825;29;20022;-69
2023/05/02 12:05:01;;;;;;;;;;;12.40;97.10;;;;;;4913751;29;19936;-70
2023/05/02 12:07:37;;;;;;;;;;;12.40;96.70;;;;;;4896671;29;20303;-70
2023/05/02 12:10:03;;;;;;;;;;;12.40;97.00;;;;;;4898977;29;19927;-70
2023/05/02 12:12:28;;;;;;;;;;;12.40;96.70;;;;;;4897705;29;20042;-71
2023/05/02 12:14:55;;;;;;;;;;;12.40;96.30;;;;;;4898938;29;20026;-71
2023/05/02 12:17:20;;;;;;;;;;;12.40;96.40;;;;;;4897676;29;19950;-71
2023/05/02 12:19:47;;;;;;;;;;;12.40;95.90;;;;;;4898441;29;19923;-71
2023/05/02 12:22:13;;;;;;;;;;;12.60;96.50;;;;;;4898857;29;20034;-69
2023/05/02 12:24:40;;;;;;;;;;;12.60;96.30;;;;;;4898454;29;19931;-71
2023/05/02 12:27:12;;;;;;;;;;;12.80;96.00;;;;;;4897564;29;19928;-71
2023/05/02 12:29:42;;;;;;;;;;;12.80;96.40;;;;;;4898598;29;19927;-71
2023/05/02 12:32:08;;;;;;;;;;;12.60;96.50;;;;;;4898652;29;19979;-71
2023/05/02 12:34:34;;;;;;;;;;;12.70;96.80;;;;;;4897559;29;19928;-70
2023/05/02 12:37:00;;;;;;;;;;;12.70;97.10;;;;;;4881914;29;19974;-71
2023/05/02 12:39:39;;;;;;;;;;;12.70;96.30;;;;;;4897603;29;19927;-70
2023/05/02 12:42:11;;;;;;;;;;;12.80;97.30;;;;;;4897172;29;20317;-71
2023/05/02 12:44:37;;;;;;;;;;;12.80;97.30;;;;;;4898021;29;20294;-70
2023/05/02 12:47:03;;;;;;;;;;;12.60;97.70;;;;;;4898365;29;19998;-71
2023/05/02 12:49:29;;;;;;;;;;;12.60;97.80;;;;;;4897772;29;20445;-69
2023/05/02 12:51:55;;;;;;;;;;;12.60;99.80;;;;;;4898389;29;19943;-70
2023/05/02 12:54:20;;;;;;;;;;;12.60;99.90;;;;;;4912981;29;19934;-70
2023/05/02 12:56:47;;;;;;;;;;;12.50;99.90;;;;;;4897741;29;19928;-70
2023/05/02 12:59:29;;;;;;;;;;;12.40;99.90;;;;;;4898046;29;20396;-69
2023/05/02 13:01:54;;;;;;;;;;;12.20;99.90;;;;;;4897707;29;19928;-70
2023/05/02 13:04:20;;;;;;;;;;;12.00;99.90;;;;;;4912371;29;19927;-69
2023/05/02 13:06:46;;;;;;;;;;;11.80;99.90;;;;;;4881140;29;19957;-71
2023/05/02 13:09:11;;;;;;;;;;;11.50;99.90;;;;;;4896696;29;19983;-71
2023/05/02 13:11:38;;;;;;;;;;;11.50;99.90;;;;;;4896451;29;19938;-71
2023/05/02 13:14:04;;;;;;;;;;;11.70;99.90;;;;;;4897733;29;19927;-71
2023/05/02 13:16:30;;;;;;;;;;;11.80;99.90;;;;;;4897720;29;19938;-70
2023/05/02 13:18:56;;;;;;;;;;;11.90;99.90;;;;;;4896279;29;20285;-70
2023/05/02 13:21:21;;;;;;;;;;;11.90;99.90;;;;;;4880937;29;19999;-70
2023/05/02 13:23:49;;;;;;;;;;;12.00;99.90;;;;;;4897073;29;19935;-69
2023/05/02 13:26:15;;;;;;;;;;;12.10;99.90;;;;;;4897693;29;20018;-70
2023/05/02 13:28:40;;;;;;;;;;;12.20;99.90;;;;;;4897348;29;20006;-71
2023/05/02 13:31:06;;;;;;;;;;;12.30;99.00;;;;;;4897551;29;19927;-70
2023/05/02 13:33:32;;;;;;;;;;;12.30;99.10;;;;;;4897501;29;19928;-73
2023/05/02 13:35:58;;;;;;;;;;;12.20;99.30;;;;;;4897168;29;19947;-71
2023/05/02 13:38:24;;;;;;;;;;;12.20;99.30;;;;;;4896276;29;20090;-70
2023/05/02 13:40:49;;;;;;;;;;;12.20;99.40;;;;;;4897178;29;19932;-70
2023/05/02 13:43:15;;;;;;;;;;;12.30;99.00;;;;;;4897180;29;19945;-70
2023/05/02 13:45:41;;;;;;;;;;;12.10;99.20;;;;;;4896956;29;19927;-70
2023/05/02 13:48:06;;;;;;;;;;;12.10;99.20;;;;;;4896263;29;20302;-70
2023/05/02 13:50:36;;;;;;;;;;;12.00;99.20;;;;;;4897285;29;19931;-70
2023/05/02 13:53:02;;;;;;;;;;;12.10;99.40;;;;;;4896265;29;19927;-70
2023/05/02 13:55:28;;;;;;;;;;;12.00;99.10;;;;;;4912595;29;20017;-71
2023/05/02 13:57:53;;;;;;;;;;;12.10;99.10;;;;;;4897282;29;20014;-71
2023/05/02 14:00:19;;;;;;;;;;;12.30;97.90;;;;;;4912069;29;19932;-70
2023/05/02 14:02:47;;;;;;;;;;;12.20;98.00;;;;;;4896935;29;19992;-70
2023/05/02 14:05:13;;;;;;;;;;;12.10;98.00;;;;;;4896338;29;19928;-70
2023/05/02 14:07:38;;;;;;;;;;;12.20;98.40;;;;;;4880364;29;19950;-70
2023/05/02 14:10:04;;;;;;;;;;;12.30;98.90;;;;;;4880177;29;19940;-69
2023/05/02 14:12:31;;;;;;;;;;;12.20;99.30;;;;;;4896228;29;20014;-70
2023/05/02 14:14:56;;;;;;;;;;;12.20;99.60;;;;;;4896702;29;19928;-69
2023/05/02 14:17:24;;;;;;;;;;;12.20;99.90;;;;;;4895992;29;19974;-71
2023/05/02 14:19:50;;;;;;;;;;;12.20;99.20;;;;;;4880229;29;19931;-71
2023/05/02 14:22:16;;;;;;;;;;;12.10;99.50;;;;;;4897092;29;20270;-70
2023/05/02 14:24:41;;;;;;;;;;;12.10;99.90;;;;;;4896145;29;19934;-69
2023/05/02 14:27:11;;;;;;;;;;;12.00;99.90;;;;;;4896723;29;20453;-70
2023/05/02 14:29:40;;;;;;;;;;;11.80;99.90;;;;;;4897449;29;19931;-70
2023/05/02 14:32:05;;;;;;;;;;;11.80;99.90;;;;;;4883892;29;19934;-72
2023/05/02 14:34:31;;;;;;;;;;;11.70;99.90;;;;;;4900670;29;20297;-70